Time;durP1;ratioP1;P1;durP2;ratioP2;P2;SDS_P1;SDS_P2;PMS_P1;PMS_P2;Temp;Humidity;BMP_temperature;BMP_pressure;BME280_temperature;BME280_humidity;BME280_pressure;Samples;Min_cycle;Max_cycle;Signal;HPM_P1;HPM_P2
2020/12/02 00:00:07;;;;;;;1.25;0.62;;;;;;;-0.85;100.00;101810.52;1765977;80;21080;-51
2020/12/02 00:03:03;;;;;;;0.00;0.00;;;;;;;-0.88;100.00;101813.05;1779596;80;21126;-49
2020/12/02 00:05:31;;;;;;;0.00;0.00;;;;;;;-0.88;100.00;101813.88;1786048;78;21099;-51
2020/12/02 00:08:15;;;;;;;0.28;0.28;;;;;;;-0.92;100.00;101813.88;1776792;80;21106;-48
2020/12/02 00:10:43;;;;;;;1.40;0.85;;;;;;;-0.92;100.00;101821.09;1766056;80;21652;-50
2020/12/02 00:13:15;;;;;;;0.10;0.10;;;;;;;-0.92;100.00;101812.53;1779716;78;21573;-51
2020/12/02 00:15:51;;;;;;;0.10;0.10;;;;;;;-0.89;100.00;101808.19;1864140;76;29581;-48
2020/12/02 00:18:18;;;;;;;0.75;0.75;;;;;;;-0.93;100.00;101815.41;1817749;77;21102;-52
2020/12/02 00:20:46;;;;;;;0.10;0.10;;;;;;;-0.95;100.00;101814.73;1812666;77;21158;-51
2020/12/02 00:23:14;;;;;;;0.53;0.53;;;;;;;-0.96;100.00;101810.39;1813680;77;21158;-52
2020/12/02 00:25:41;;;;;;;0.10;0.10;;;;;;;-0.92;100.00;101811.19;1813319;78;21165;-50
2020/12/02 00:28:11;;;;;;;0.42;0.37;;;;;;;-0.93;100.00;101813.55;1813937;77;21545;-51
2020/12/02 00:30:39;;;;;;;4.97;0.75;;;;;;;-0.94;100.00;101811.89;1812683;77;21115;-51
2020/12/02 00:33:20;;;;;;;2.40;0.85;;;;;;;-0.96;100.00;101815.24;1813683;77;21732;-49
2020/12/02 00:35:48;;;;;;;0.10;0.10;;;;;;;-0.97;100.00;101814.89;1813107;77;21560;-52
2020/12/02 00:38:17;;;;;;;0.85;0.85;;;;;;;-0.97;100.00;101813.55;1760566;79;21131;-49
2020/12/02 00:40:44;;;;;;;0.88;0.88;;;;;;;-0.97;100.00;101812.20;1761237;81;21134;-51
2020/12/02 00:43:13;;;;;;;0.20;0.20;;;;;;;-0.97;100.00;101809.52;1759401;79;21122;-50
2020/12/02 00:45:41;;;;;;;0.20;0.20;;;;;;;-0.95;100.00;101806.69;1759230;79;21576;-51
2020/12/02 00:48:13;;;;;;;0.57;0.57;;;;;;;-0.96;100.00;101807.70;1760741;79;21165;-50
2020/12/02 00:50:41;;;;;;;1.55;0.57;;;;;;;-0.97;100.00;101810.86;1761415;80;21138;-50
2020/12/02 00:53:17;;;;;;;1.05;0.75;;;;;;;-0.96;100.00;101811.73;1758983;79;21107;-50
2020/12/02 00:55:47;;;;;;;1.20;0.60;;;;;;;-0.97;100.00;101812.72;1759528;79;21702;-50
2020/12/02 00:58:54;;;;;;;0.20;0.20;;;;;;;-0.99;100.00;101806.20;1760990;81;21477;-50
2020/12/02 01:01:41;;;;;;;0.55;0.55;;;;;;;-0.97;100.00;101808.69;1736791;79;21175;-51
2020/12/02 01:04:16;;;;;;;0.50;0.50;;;;;;;-0.95;100.00;101806.17;1755133;79;21203;-51
2020/12/02 01:06:48;;;;;;;0.20;0.20;;;;;;;-0.95;100.00;101806.17;1758657;79;22280;-51
2020/12/02 01:09:15;;;;;;;0.00;0.00;;;;;;;-0.95;100.00;101798.12;1757749;79;21554;-51
2020/12/02 01:11:45;;;;;;;0.10;0.10;;;;;;;-0.93;100.00;101796.11;1758019;79;21198;-49
2020/12/02 01:14:16;;;;;;;0.35;0.35;;;;;;;-0.92;100.00;101796.43;1752105;79;21188;-50
2020/12/02 01:16:48;;;;;;;0.10;0.10;;;;;;;-0.91;100.00;101792.76;1729988;82;21125;-49
2020/12/02 01:19:17;;;;;;;;;;;;;;;-0.91;100.00;101796.78;1734375;81;21167;-50
2020/12/02 01:21:59;;;;;;;0.13;0.13;;;;;;;-0.93;100.00;101794.77;1730730;81;20250;-49
2020/12/02 01:24:36;;;;;;;0.20;0.20;;;;;;;-0.94;100.00;101798.47;1730101;82;21437;-51
2020/12/02 01:27:24;;;;;;;0.53;0.40;;;;;;;-0.98;100.00;101798.47;1731808;82;21154;-51
2020/12/02 01:29:51;;;;;;;0.10;0.10;;;;;;;-1.00;100.00;101793.77;1727728;82;21730;-51
2020/12/02 01:32:19;;;;;;;0.80;0.80;;;;;;;-0.98;100.00;101798.47;1728367;82;21132;-50
2020/12/02 01:34:49;;;;;;;0.40;0.40;;;;;;;-0.99;100.00;101799.97;1730758;82;21112;-50
2020/12/02 01:37:35;;;;;;;0.55;0.55;;;;;;;-1.01;100.00;101786.74;1728516;82;21181;-49
2020/12/02 01:40:16;;;;;;;0.20;0.20;;;;;;;-1.02;100.00;101787.73;1729591;82;21132;-51
2020/12/02 01:42:54;;;;;;;0.40;0.40;;;;;;;-1.02;100.00;101785.05;1706028;82;21572;-50
2020/12/02 01:45:35;;;;;;;0.95;0.30;;;;;;;-1.01;100.00;101789.42;1748674;80;21379;-48
2020/12/02 01:48:34;;;;;;;0.20;0.20;;;;;;;-1.02;100.00;101791.76;1745399;80;21176;-51
2020/12/02 01:51:36;;;;;;;0.65;0.42;;;;;;;-0.99;100.00;101782.53;1758170;81;21135;-52
2020/12/02 01:54:13;;;;;;;2.08;0.90;;;;;;;-0.97;100.00;101788.06;1751865;80;21160;-51
2020/12/02 01:56:54;;;;;;;0.10;0.10;;;;;;;-0.98;100.00;101781.03;1728283;81;21593;-51
2020/12/02 01:59:52;;;;;;;0.30;0.10;;;;;;;-1.01;100.00;101776.02;1705009;82;21168;-51
2020/12/02 02:02:52;;;;;;;0.40;0.40;;;;;;;-1.00;100.00;101776.84;1720411;82;21149;-52
2020/12/02 02:05:50;;;;;;;0.10;0.10;;;;;;;-0.97;100.00;101779.17;1728528;82;21192;-52
2020/12/02 02:08:20;;;;;;;0.28;0.28;;;;;;;-0.98;100.00;101778.34;1729965;82;21172;-48
2020/12/02 02:10:49;;;;;;;0.10;0.10;;;;;;;-1.00;100.00;101774.98;1729062;82;21417;-51
2020/12/02 02:13:31;;;;;;;0.30;0.30;;;;;;;-1.01;100.00;101776.02;1729537;82;21160;-50
2020/12/02 02:16:19;;;;;;;2.45;0.68;;;;;;;-1.00;100.00;101768.28;1754171;81;21119;-49
2020/12/02 02:18:47;;;;;;;0.90;0.90;;;;;;;-1.00;100.00;101770.97;1757676;79;21251;-49
2020/12/02 02:21:18;;;;;;;0.30;0.30;;;;;;;-1.01;100.00;101765.78;1756490;79;21151;-52
2020/12/02 02:23:46;;;;;;;0.20;0.20;;;;;;;-1.01;100.00;101766.62;1736709;80;23484;-49
2020/12/02 02:26:25;;;;;;;0.28;0.20;;;;;;;-1.00;100.00;101764.77;1758319;79;21161;-50
2020/12/02 02:29:04;;;;;;;0.93;0.57;;;;;;;-1.00;100.00;101768.79;1764366;80;21118;-52
2020/12/02 02:31:52;;;;;;;1.12;0.57;;;;;;;-1.01;100.00;101769.30;1763758;81;21166;-52
2020/12/02 02:34:19;;;;;;;0.10;0.10;;;;;;;-0.99;100.00;101768.63;1766899;80;20979;-49
2020/12/02 02:36:47;;;;;;;0.30;0.30;;;;;;;-0.99;100.00;101771.80;1736694;80;21446;-51
2020/12/02 02:39:15;;;;;;;0.42;0.42;;;;;;;-1.01;100.00;101762.59;1763869;80;21106;-51
2020/12/02 02:41:42;;;;;;;0.20;0.20;;;;;;;-1.02;100.00;101760.91;1765175;80;21114;-52
2020/12/02 02:44:11;;;;;;;1.27;0.65;;;;;;;-0.99;100.00;101766.43;1781070;78;21112;-52
2020/12/02 02:46:39;;;;;;;1.55;1.35;;;;;;;-0.98;100.00;101770.30;1782506;78;21127;-49
2020/12/02 02:49:07;;;;;;;0.45;0.45;;;;;;;-0.98;100.00;101766.78;1775559;80;21131;-52
2020/12/02 02:51:34;;;;;;;0.45;0.45;;;;;;;-1.00;100.00;101767.45;1746358;80;21127;-51
2020/12/02 02:54:02;;;;;;;0.08;0.08;;;;;;;-0.98;100.00;101770.30;1756493;79;21178;-49
2020/12/02 02:56:29;;;;;;;0.20;0.20;;;;;;;-0.96;100.00;101776.33;1755843;79;21497;-51
2020/12/02 02:58:57;;;;;;;1.30;0.33;;;;;;;-0.96;100.00;101772.81;1759441;80;21171;-49
2020/12/02 03:01:24;;;;;;;0.20;0.20;;;;;;;-0.98;100.00;101772.14;1759686;81;21182;-50
2020/12/02 03:03:52;;;;;;;0.53;0.30;;;;;;;-0.99;100.00;101776.68;1756347;79;21091;-49
2020/12/02 03:06:19;;;;;;;0.20;0.20;;;;;;;-0.97;100.00;101773.30;1757391;79;21482;-50
2020/12/02 03:08:47;;;;;;;0.10;0.10;;;;;;;-0.95;100.00;101771.80;1757751;81;21198;-52
2020/12/02 03:11:15;;;;;;;0.13;0.13;;;;;;;-0.98;100.00;101775.66;1753977;81;21443;-49
2020/12/02 03:13:50;;;;;;;0.62;0.62;;;;;;;-0.99;100.00;101778.02;1777548;78;21111;-49
2020/12/02 03:16:42;;;;;;;3.10;0.75;;;;;;;-0.96;100.00;101780.36;1776785;80;21411;-52
2020/12/02 03:19:26;;;;;;;0.30;0.30;;;;;;;-0.95;100.00;101774.48;1777332;79;21428;-53
2020/12/02 03:21:55;;;;;;;0.90;0.90;;;;;;;-0.93;100.00;101781.86;1768603;81;21198;-50
2020/12/02 03:24:24;;;;;;;0.10;0.10;;;;;;;-0.95;100.00;101782.02;1767296;79;21107;-49
2020/12/02 03:26:52;;;;;;;0.00;0.00;;;;;;;-0.94;100.00;101782.85;1768187;81;21162;-51
2020/12/02 03:29:19;;;;;;;0.42;0.33;;;;;;;-0.94;100.00;101778.34;1764393;79;21130;-49
2020/12/02 03:31:47;;;;;;;0.42;0.42;;;;;;;-0.94;100.00;101774.32;1758573;81;21107;-50
2020/12/02 03:34:17;;;;;;;0.00;0.00;;;;;;;-0.95;100.00;101771.80;1747407;80;21571;-52
2020/12/02 03:36:45;;;;;;;1.65;0.75;;;;;;;-0.94;100.00;101785.53;1746491;82;21185;-50
2020/12/02 03:39:13;;;;;;;0.75;0.75;;;;;;;-0.95;100.00;101771.80;1747797;79;21138;-52
2020/12/02 03:41:41;;;;;;;0.10;0.10;;;;;;;-0.95;100.00;101778.00;1770654;79;21171;-49
2020/12/02 03:44:08;;;;;;;2.10;0.82;;;;;;;-0.94;100.00;101780.17;1773016;79;21403;-49
2020/12/02 03:46:36;;;;;;;0.30;0.30;;;;;;;-0.92;100.00;101773.63;1756717;80;21561;-49
2020/12/02 03:49:05;;;;;;;0.65;0.65;;;;;;;-0.92;100.00;101782.18;1778892;79;21165;-50
2020/12/02 03:51:34;;;;;;;0.10;0.10;;;;;;;-0.92;100.00;101785.70;1776555;79;21218;-49
2020/12/02 03:54:02;;;;;;;0.50;0.50;;;;;;;-0.92;100.00;101779.50;1776886;79;21144;-49
2020/12/02 03:56:29;;;;;;;0.20;0.20;;;;;;;-0.91;100.00;101782.02;1777277;79;21101;-50
2020/12/02 03:58:57;;;;;;;0.10;0.10;;;;;;;-0.90;100.00;101778.31;1778004;79;21516;-48
2020/12/02 04:01:24;;;;;;;0.45;0.45;;;;;;;-0.90;100.00;101782.34;1746430;80;21207;-49
2020/12/02 04:03:52;;;;;;;0.53;0.53;;;;;;;-0.90;100.00;101778.83;1777008;79;21119;-51
2020/12/02 04:06:19;;;;;;;0.30;0.30;;;;;;;-0.88;100.00;101780.33;1765763;79;21119;-52
2020/12/02 04:08:47;;;;;;;0.65;0.65;;;;;;;-0.85;100.00;101793.08;1768335;81;21098;-52
2020/12/02 04:11:15;;;;;;;1.92;0.68;;;;;;;-0.83;100.00;101795.09;1767534;80;21667;-48
2020/12/02 04:13:43;;;;;;;0.17;0.17;;;;;;;-0.82;100.00;101798.09;1764639;79;21586;-52
2020/12/02 04:16:10;;;;;;;0.00;0.00;;;;;;;-0.84;100.00;101800.97;1749380;79;21488;-49
2020/12/02 04:18:37;;;;;;;0.30;0.30;;;;;;;-0.83;100.00;101799.95;1747836;80;21095;-49
2020/12/02 04:21:05;;;;;;;0.78;0.78;;;;;;;-0.83;100.00;101801.80;1773338;78;21137;-49
2020/12/02 04:23:32;;;;;;;2.40;0.50;;;;;;;-0.81;100.00;101801.13;1710910;82;21864;-50
2020/12/02 04:26:00;;;;;;;0.23;0.23;;;;;;;-0.84;100.00;101803.66;1700671;83;21150;-50
2020/12/02 04:28:28;;;;;;;1.00;1.00;;;;;;;-0.83;100.00;101803.14;1741102;80;21131;-52
2020/12/02 04:30:58;;;;;;;0.75;0.75;;;;;;;-0.82;100.00;101798.09;1738084;82;21160;-52
2020/12/02 04:33:25;;;;;;;0.00;0.00;;;;;;;-0.83;100.00;101800.46;1735068;82;21137;-49
2020/12/02 04:35:53;;;;;;;2.75;0.80;;;;;;;-0.83;100.00;101791.06;1735615;82;21134;-48
2020/12/02 04:38:20;;;;;;;0.00;0.00;;;;;;;-0.82;100.00;101789.53;1738070;82;21596;-49
2020/12/02 04:40:47;;;;;;;0.08;0.08;;;;;;;-0.79;100.00;101793.72;1738098;82;21130;-50
2020/12/02 04:43:36;;;;;;;0.13;0.13;;;;;;;-0.82;100.00;101800.27;1734980;81;21497;-49
2020/12/02 04:46:15;;;;;;;0.23;0.23;;;;;;;-0.85;100.00;101795.25;1735445;82;21010;-51
2020/12/02 04:48:46;;;;;;;0.30;0.30;;;;;;;-0.83;100.00;101798.61;1735380;82;21154;-49
2020/12/02 04:51:21;;;;;;;0.75;0.30;;;;;;;-0.82;100.00;101796.25;1736013;82;21584;-50
2020/12/02 04:53:52;;;;;;;0.10;0.10;;;;;;;-0.83;100.00;101800.46;1736679;81;21125;-49
2020/12/02 04:56:20;;;;;;;0.10;0.10;;;;;;;-0.83;100.00;101797.27;1734623;82;21136;-49
2020/12/02 04:58:48;;;;;;;0.42;0.42;;;;;;;-0.81;100.00;101797.94;1737438;82;21511;-52
2020/12/02 05:01:23;;;;;;;0.15;0.15;;;;;;;-0.81;100.00;101797.11;1734772;82;21729;-49
2020/12/02 05:04:18;;;;;;;0.33;0.30;;;;;;;-0.82;100.00;101797.59;1733907;80;20982;-53
2020/12/02 05:06:49;;;;;;;0.47;0.47;;;;;;;-0.85;100.00;101799.79;1708988;82;21156;-50
2020/12/02 05:09:21;;;;;;;0.13;0.13;;;;;;;-0.84;100.00;101800.11;1734951;81;21136;-52
2020/12/02 05:12:08;;;;;;;0.55;0.55;;;;;;;-0.84;100.00;101800.11;1736150;82;21167;-50
2020/12/02 05:14:44;;;;;;;0.10;0.10;;;;;;;-0.87;100.00;101802.16;1706353;82;21360;-49
2020/12/02 05:17:27;;;;;;;0.40;0.40;;;;;;;-0.88;100.00;101799.63;1751503;81;21171;-49
2020/12/02 05:20:21;;;;;;;0.20;0.20;;;;;;;-0.88;100.00;101803.14;1751367;81;21178;-52
2020/12/02 05:22:50;;;;;;;0.55;0.55;;;;;;;-0.87;100.00;101803.49;1755404;81;21722;-49
2020/12/02 05:25:32;;;;;;;1.27;1.17;;;;;;;-0.85;100.00;101807.33;1742281;81;21185;-53
2020/12/02 05:28:30;;;;;;;0.00;0.00;;;;;;;-0.84;100.00;101802.80;1760216;81;21142;-52
2020/12/02 05:31:27;;;;;;;0.00;0.00;;;;;;;-0.82;100.00;101808.83;1763916;81;21143;-53
2020/12/02 05:34:08;;;;;;;0.10;0.10;;;;;;;-0.83;100.00;101807.17;1748294;81;21138;-52
2020/12/02 05:36:38;;;;;;;0.30;0.30;;;;;;;-0.84;100.00;101815.73;1755179;81;21118;-50
2020/12/02 05:39:41;;;;;;;0.10;0.10;;;;;;;-0.82;100.00;101808.83;1697089;81;21170;-50
2020/12/02 05:42:23;;;;;;;0.00;0.00;;;;;;;-0.80;100.00;101813.53;1750349;81;21597;-52
2020/12/02 05:44:54;;;;;;;0.55;0.55;;;;;;;-0.82;100.00;101819.56;1757800;81;21660;-52
2020/12/02 05:47:22;;;;;;;0.20;0.20;;;;;;;-0.83;100.00;101815.22;1708010;82;21180;-50
2020/12/02 05:49:53;;;;;;;0.20;0.20;;;;;;;-0.85;100.00;101811.36;1750264;81;21130;-53
2020/12/02 05:52:39;;;;;;;0.28;0.28;;;;;;;-0.84;100.00;101814.39;1751242;81;21428;-50
2020/12/02 05:55:23;;;;;;;0.13;0.13;;;;;;;-0.82;100.00;101814.20;1763853;81;21585;-51
2020/12/02 05:58:14;;;;;;;5.95;1.47;;;;;;;-0.83;100.00;101815.22;1738631;81;21210;-49
2020/12/02 06:00:41;;;;;;;0.10;0.10;;;;;;;-0.81;100.00;101818.58;1749371;81;21220;-49
2020/12/02 06:03:11;;;;;;;0.00;0.00;;;;;;;-0.80;100.00;101818.90;1757081;81;21107;-49
2020/12/02 06:05:38;;;;;;;0.17;0.17;;;;;;;-0.78;100.00;101818.23;1763817;81;21110;-50
2020/12/02 06:08:07;;;;;;;0.30;0.20;;;;;;;-0.75;100.00;101825.94;1747533;81;21174;-49
2020/12/02 06:10:46;;;;;;;0.40;0.40;;;;;;;-0.74;100.00;101819.06;1746844;81;21174;-52
2020/12/02 06:13:38;;;;;;;1.35;1.20;;;;;;;-0.73;100.00;101823.41;1741688;81;21162;-49
2020/12/02 06:16:06;;;;;;;0.05;0.05;;;;;;;-0.74;100.00;101823.09;1747164;80;21151;-49
2020/12/02 06:18:36;;;;;;;2.35;0.40;;;;;;;-0.76;100.00;101826.95;1764263;80;21182;-53
2020/12/02 06:21:04;;;;;;;0.30;0.30;;;;;;;-0.74;100.00;101826.25;1762132;79;21079;-53
2020/12/02 06:23:41;;;;;;;0.95;0.82;;;;;;;-0.73;100.00;101826.09;1764893;79;22075;-49
2020/12/02 06:26:09;;;;;;;0.10;0.10;;;;;;;-0.73;100.00;101829.28;1768031;80;21502;-49
2020/12/02 06:28:42;;;;;;;0.20;0.20;;;;;;;-0.73;100.00;101836.83;1762060;81;21631;-50
2020/12/02 06:31:24;;;;;;;0.10;0.10;;;;;;;-0.71;100.00;101833.48;1787295;78;21126;-53
2020/12/02 06:33:52;;;;;;;0.10;0.10;;;;;;;-0.67;100.00;101839.33;1758500;80;21215;-52
2020/12/02 06:36:31;;;;;;;0.33;0.33;;;;;;;-0.67;100.00;101838.84;1776608;80;21233;-49
2020/12/02 06:39:12;;;;;;;0.62;0.62;;;;;;;-0.68;100.00;101844.38;1778758;80;22030;-49
2020/12/02 06:41:42;;;;;;;0.20;0.20;;;;;;;-0.65;100.00;101848.05;1776542;80;21147;-50
2020/12/02 06:44:16;;;;;;;1.10;0.93;;;;;;;-0.63;100.00;101850.06;1764996;80;21152;-50
2020/12/02 06:47:09;;;;;;;0.50;0.50;;;;;;;-0.63;100.00;101846.04;1760164;80;21126;-52
2020/12/02 06:49:38;;;;;;;0.55;0.55;;;;;;;-0.61;100.00;101845.88;1752961;80;21752;-49
2020/12/02 06:52:11;;;;;;;0.55;0.55;;;;;;;-0.58;100.00;101843.67;1730506;82;21162;-52
2020/12/02 06:54:39;;;;;;;0.53;0.53;;;;;;;-0.55;100.00;101844.67;1730685;81;21279;-50
2020/12/02 06:57:23;;;;;;;3.40;0.72;;;;;;;-0.52;100.00;101852.41;1730636;82;21155;-51
2020/12/02 07:00:02;;;;;;;0.10;0.10;;;;;;;-0.49;100.00;101852.05;1751683;80;21218;-50
2020/12/02 07:02:48;;;;;;;0.30;0.30;;;;;;;-0.46;100.00;101849.02;1760143;81;21130;-50
2020/12/02 07:05:34;;;;;;;0.10;0.10;;;;;;;-0.34;100.00;101854.03;1831755;76;29065;-49
2020/12/02 07:08:14;;;;;;;0.20;0.20;;;;;;;-0.36;100.00;101857.39;1780226;80;21133;-52
2020/12/02 07:10:44;;;;;;;0.10;0.10;;;;;;;-0.36;100.00;101863.59;1775349;80;21132;-52
2020/12/02 07:13:15;;;;;;;0.23;0.23;;;;;;;-0.36;100.00;101859.56;1754497;81;21146;-52
2020/12/02 07:15:42;;;;;;;0.13;0.13;;;;;;;-0.30;100.00;101860.70;1784816;80;21109;-50
2020/12/02 07:18:17;;;;;;;0.62;0.62;;;;;;;-0.26;100.00;101862.88;1785232;79;21545;-49
2020/12/02 07:20:46;;;;;;;2.30;0.85;;;;;;;-0.22;100.00;101863.39;1785800;80;21114;-48
2020/12/02 07:23:18;;;;;;;0.90;0.30;;;;;;;-0.18;100.00;101868.73;1782098;80;21108;-49
2020/12/02 07:25:46;;;;;;;1.35;0.47;;;;;;;-0.17;100.00;101862.36;1731427;80;21130;-52
2020/12/02 07:28:18;;;;;;;0.30;0.30;;;;;;;-0.12;100.00;101866.70;1731476;80;21449;-52
2020/12/02 07:30:55;;;;;;;0.00;0.00;;;;;;;-0.04;100.00;101869.86;1855838;75;29020;-50
2020/12/02 07:33:26;;;;;;;0.10;0.10;;;;;;;-0.07;100.00;101870.22;1848845;76;21102;-48
2020/12/02 07:36:16;;;;;;;1.45;0.95;;;;;;;-0.05;100.00;101870.37;1820835;77;21144;-52
2020/12/02 07:38:43;;;;;;;6.30;0.80;;;;;;;-0.02;100.00;101874.05;1821213;77;21186;-52
2020/12/02 07:41:16;;;;;;;1.65;0.70;;;;;;;0.02;100.00;101875.03;1826989;77;21087;-49
2020/12/02 07:43:47;;;;;;;0.50;0.50;;;;;;;0.03;100.00;101872.70;1759331;80;21161;-49
2020/12/02 07:46:15;;;;;;;1.42;1.17;;;;;;;0.01;100.00;101880.92;1730397;81;21099;-53
2020/12/02 07:48:42;;;;;;;3.30;0.62;;;;;;;0.02;100.00;101875.03;1770319;80;22065;-49
2020/12/02 07:51:29;;;;;;;0.10;0.10;;;;;;;0.01;100.00;101880.92;1732989;80;21147;-53
2020/12/02 07:54:19;;;;;;;1.27;0.80;;;;;;;0.03;100.00;101879.41;1763200;80;21139;-53
2020/12/02 07:56:47;;;;;;;1.12;1.12;;;;;;;0.03;100.00;101882.10;1756727;79;21147;-50
2020/12/02 07:59:22;;;;;;;0.40;0.40;;;;;;;0.03;100.00;101888.83;1755831;79;21134;-50
2020/12/02 08:02:01;;;;;;;0.47;0.47;;;;;;;0.04;100.00;101884.59;1763187;79;21148;-53
2020/12/02 08:04:50;;;;;;;0.45;0.45;;;;;;;0.07;100.00;101882.06;1767305;79;21155;-50
2020/12/02 08:07:18;;;;;;;7.47;1.95;;;;;;;0.09;100.00;101885.42;1761176;79;21161;-53
2020/12/02 08:09:51;;;;;;;1.67;1.00;;;;;;;0.10;100.00;101888.42;1753208;79;21130;-50
2020/12/02 08:12:29;;;;;;;1.07;0.88;;;;;;;0.12;100.00;101887.75;1765093;80;21692;-53
2020/12/02 08:15:08;;;;;;;1.15;1.15;;;;;;;0.14;100.00;101886.56;1732576;81;21625;-50
2020/12/02 08:17:35;;;;;;;2.08;0.85;;;;;;;0.21;100.00;101889.39;1800029;78;21461;-51
2020/12/02 08:20:32;;;;;;;0.37;0.37;;;;;;;0.27;100.00;101888.67;1774248;80;21129;-49
2020/12/02 08:23:14;;;;;;;0.62;0.50;;;;;;;0.32;100.00;101885.46;1759017;80;21115;-49
2020/12/02 08:25:49;;;;;;;6.15;1.37;;;;;;;0.39;100.00;101882.40;1750712;81;21139;-53
2020/12/02 08:28:23;;;;;;;1.07;0.98;;;;;;;0.49;100.00;101880.83;1769116;81;21174;-49
2020/12/02 08:31:10;;;;;;;0.82;0.55;;;;;;;0.56;100.00;101880.45;1775350;80;21134;-49
2020/12/02 08:34:15;;;;;;;1.90;1.70;;;;;;;0.68;100.00;101877.67;1825472;76;29154;-49
2020/12/02 08:36:52;;;;;;;3.77;1.52;;;;;;;0.67;100.00;101872.47;1758639;80;21128;-48
2020/12/02 08:39:29;;;;;;;1.45;1.35;;;;;;;0.72;100.00;101868.73;1765584;80;21152;-48
2020/12/02 08:41:56;;;;;;;0.65;0.65;;;;;;;0.76;100.00;101864.16;1748025;80;21183;-48
2020/12/02 08:44:24;;;;;;;0.55;0.55;;;;;;;0.79;100.00;101862.47;1761653;80;21121;-50
2020/12/02 08:47:01;;;;;;;2.17;0.85;;;;;;;0.81;100.00;101860.41;1769337;79;21149;-49
2020/12/02 08:49:30;;;;;;;0.50;0.50;;;;;;;0.80;100.00;101864.14;1757060;79;21175;-48
2020/12/02 08:51:58;;;;;;;1.10;1.00;;;;;;;0.82;100.00;101851.34;1776930;79;21164;-48
2020/12/02 08:54:26;;;;;;;0.33;0.33;;;;;;;0.86;100.00;101850.45;1777234;80;21168;-48
2020/12/02 08:57:06;;;;;;;1.40;1.32;;;;;;;0.84;100.00;101853.34;1783846;79;21115;-47
2020/12/02 08:59:34;;;;;;;0.47;0.47;;;;;;;0.81;100.00;101855.03;1781964;79;21151;-48
2020/12/02 09:02:12;;;;;;;0.25;0.25;;;;;;;0.75;100.00;101854.42;1759587;80;21763;-49
2020/12/02 09:04:40;;;;;;;0.10;0.10;;;;;;;0.71;100.00;101851.75;1777479;80;21145;-48
2020/12/02 09:07:07;;;;;;;0.30;0.30;;;;;;;0.67;100.00;101851.80;1756315;80;21200;-48
2020/12/02 09:09:36;;;;;;;1.05;0.95;;;;;;;0.63;100.00;101850.48;1775814;79;21212;-47
2020/12/02 09:12:05;;;;;;;1.87;0.75;;;;;;;0.60;100.00;101847.64;1766188;80;21192;-50
2020/12/02 09:14:32;;;;;;;1.10;0.78;;;;;;;0.59;100.00;101845.98;1746215;82;21113;-48
2020/12/02 09:17:00;;;;;;;2.62;0.75;;;;;;;0.63;100.00;101839.72;1751509;79;21171;-48
2020/12/02 09:19:27;;;;;;;0.75;0.75;;;;;;;0.65;100.00;101833.66;1769178;80;21152;-50
2020/12/02 09:21:55;;;;;;;0.08;0.08;;;;;;;0.65;100.00;101844.41;1775944;79;21165;-51
2020/12/02 09:24:23;;;;;;;0.10;0.10;;;;;;;0.65;100.00;101841.72;1761815;80;21528;-49
2020/12/02 09:26:50;;;;;;;1.17;1.17;;;;;;;0.66;100.00;101835.83;1758816;80;21131;-50
2020/12/02 09:29:19;;;;;;;2.10;0.37;;;;;;;0.68;100.00;101849.95;1753700;80;21043;-49
2020/12/02 09:31:46;;;;;;;0.25;0.25;;;;;;;0.69;100.00;101840.33;1755237;79;21552;-49
2020/12/02 09:34:13;;;;;;;1.30;0.85;;;;;;;0.71;100.00;101846.38;1768217;80;21439;-52
2020/12/02 09:36:42;;;;;;;1.20;1.00;;;;;;;0.72;100.00;101848.55;1755090;80;21152;-49
2020/12/02 09:39:09;;;;;;;0.20;0.20;;;;;;;0.74;100.00;101846.03;1777884;80;21144;-51
2020/12/02 09:42:03;;;;;;;0.30;0.30;;;;;;;0.75;100.00;101849.05;1713890;81;21595;-48
2020/12/02 09:44:35;;;;;;;0.08;0.08;;;;;;;0.77;100.00;101845.67;1755546;80;21567;-51
2020/12/02 09:47:11;;;;;;;3.33;0.40;;;;;;;0.77;100.00;101840.28;1776719;80;21219;-52
2020/12/02 09:49:41;;;;;;;2.05;0.37;;;;;;;0.81;100.00;101846.95;1751385;81;21662;-48
2020/12/02 09:52:15;;;;;;;2.15;0.98;;;;;;;0.84;100.00;101839.89;1757438;80;21160;-52
2020/12/02 09:54:44;;;;;;;0.13;0.13;;;;;;;0.89;100.00;101842.05;1770781;80;21575;-48
2020/12/02 09:57:15;;;;;;;0.47;0.47;;;;;;;0.91;100.00;101847.23;1765360;80;21145;-52
2020/12/02 09:59:43;;;;;;;1.50;0.50;;;;;;;0.89;100.00;101843.87;1759559;80;21109;-50
2020/12/02 10:02:37;;;;;;;1.22;0.42;;;;;;;0.90;100.00;101848.26;1774385;80;21132;-51
2020/12/02 10:05:29;;;;;;;0.57;0.57;;;;;;;0.86;100.00;101844.56;1781666;80;21158;-49
2020/12/02 10:08:37;;;;;;;0.85;0.20;;;;;;;0.89;100.00;101844.73;1718040;80;21132;-53
2020/12/02 10:11:37;;;;;;;0.15;0.15;;;;;;;0.88;100.00;101846.25;1708582;82;21769;-52
2020/12/02 10:14:33;;;;;;;0.20;0.20;;;;;;;0.82;100.00;101843.78;1697776;82;21165;-52
2020/12/02 10:17:09;;;;;;;0.37;0.37;;;;;;;0.76;100.00;101845.32;1708309;82;21135;-52
2020/12/02 10:19:51;;;;;;;4.00;0.98;;;;;;;0.71;100.00;101846.38;1709940;82;21314;-50
2020/12/02 10:22:51;;;;;;;0.28;0.17;;;;;;;0.69;100.00;101847.05;1729498;82;21138;-50
2020/12/02 10:25:53;;;;;;;0.20;0.20;;;;;;;0.68;100.00;101849.43;1731948;82;21194;-52
2020/12/02 10:28:33;;;;;;;0.47;0.47;;;;;;;0.65;100.00;101845.76;1724563;82;21153;-48
2020/12/02 10:31:32;;;;;;;0.42;0.42;;;;;;;0.64;100.00;101849.45;1695602;84;21128;-52
2020/12/02 10:34:14;;;;;;;1.10;1.10;;;;;;;0.66;100.00;101841.20;1644545;82;21200;-49
2020/12/02 10:36:50;;;;;;;2.33;0.57;;;;;;;0.64;100.00;101842.23;1728473;82;21900;-52
2020/12/02 10:39:23;;;;;;;0.00;0.00;;;;;;;0.62;100.00;101843.44;1727455;82;21560;-50
2020/12/02 10:42:13;;;;;;;1.05;1.05;;;;;;;0.59;100.00;101843.77;1702550;84;21156;-48
2020/12/02 10:45:11;;;;;;;0.30;0.30;;;;;;;0.57;100.00;101839.07;1727729;81;21196;-52
2020/12/02 10:47:50;;;;;;;0.78;0.72;;;;;;;0.57;100.00;101849.35;1703317;82;21203;-49
2020/12/02 10:50:20;;;;;;;1.02;0.40;;;;;;;0.56;100.00;101842.80;1717865;82;21153;-52
2020/12/02 10:52:50;;;;;;;0.10;0.10;;;;;;;0.58;100.00;101836.73;1730003;82;20995;-49
2020/12/02 10:55:21;;;;;;;3.58;2.92;;;;;;;0.59;100.00;101837.91;1710052;82;21149;-52
2020/12/02 10:58:11;;;;;;;0.82;0.82;;;;;;;0.62;100.00;101843.44;1729312;82;22068;-52
2020/12/02 11:00:38;;;;;;;4.87;1.98;;;;;;;0.63;100.00;101846.44;1709792;82;21193;-47
2020/12/02 11:03:14;;;;;;;2.12;1.92;;;;;;;0.62;100.00;101850.99;1718710;82;21153;-52
2020/12/02 11:05:45;;;;;;;0.10;0.10;;;;;;;0.59;100.00;101844.63;1722444;82;21172;-52
2020/12/02 11:08:53;;;;;;;0.10;0.10;;;;;;;0.58;100.00;101848.32;1696438;83;20975;-48
2020/12/02 11:11:38;;;;;;;0.40;0.40;;;;;;;0.60;100.00;101850.84;1710998;82;21201;-48
2020/12/02 11:14:29;;;;;;;0.33;0.33;;;;;;;0.58;100.00;101844.28;1702800;84;21474;-48
2020/12/02 11:17:24;;;;;;;0.50;0.50;;;;;;;0.56;100.00;101844.14;1708820;82;21141;-52
2020/12/02 11:20:08;;;;;;;0.20;0.20;;;;;;;0.51;100.00;101841.98;1731092;82;21176;-48
2020/12/02 11:23:08;;;;;;;0.57;0.57;;;;;;;0.47;100.00;101839.82;1710755;82;21200;-50
2020/12/02 11:26:10;;;;;;;0.75;0.75;;;;;;;0.43;100.00;101840.19;1717778;82;21556;-52
2020/12/02 11:28:44;;;;;;;0.55;0.50;;;;;;;0.42;100.00;101847.94;1730809;82;21183;-48
2020/12/02 11:31:30;;;;;;;0.62;0.62;;;;;;;0.38;100.00;101845.78;1732058;82;21177;-50
2020/12/02 11:34:40;;;;;;;0.57;0.57;;;;;;;0.35;100.00;101846.97;1731995;81;21205;-49
2020/12/02 11:37:19;;;;;;;0.88;0.88;;;;;;;0.35;100.00;101845.62;1720434;82;21540;-52
2020/12/02 11:40:19;;;;;;;2.67;1.52;;;;;;;0.37;100.00;101847.64;1708105;82;21138;-50
2020/12/02 11:43:12;;;;;;;0.15;0.15;;;;;;;0.37;100.00;101847.64;1702859;84;21169;-49
2020/12/02 11:45:41;;;;;;;0.35;0.35;;;;;;;0.36;100.00;101841.08;1702885;82;21186;-52
2020/12/02 11:48:34;;;;;;;3.58;0.45;;;;;;;0.37;100.00;101846.30;1707350;82;21197;-52
2020/12/02 11:51:16;;;;;;;0.15;0.15;;;;;;;0.39;100.00;101838.86;1701421;82;21445;-48
2020/12/02 11:53:47;;;;;;;;;;;;;;;0.38;100.00;101846.61;1734516;82;21476;-53
2020/12/02 11:56:20;;;;;;;0.95;0.95;;;;;;;0.37;100.00;101842.27;1715568;82;20263;-49
2020/12/02 11:59:07;;;;;;;0.08;0.08;;;;;;;0.35;100.00;101845.62;1702648;84;21192;-52